SBIL Informações do Aeroporto

Informações da Pista
Pista 11 Comprimento 5174 ft Largura 148 ft
Elevação 0 ft Limite 0 ft Heading 0
Pista 29 Comprimento 5174 ft Largura 148 ft
Elevação 0 ft Limite 0 ft Heading 0
Frequências do Aeroporto
Tipo APP Nome APP Frequência 120.1 MHZ
Navaids do Aeroporto
Tipo NDB Nome Ilheus Frequência 305 KHZ
Informações meteorológicas do aeroporto e NOTAM
ADDS - METARS form results

(0810 UTC 06 July 2020)
Data provider http://aviationweather.gov/metar/data/
 
Forecast for: SBIL (ILHEUS AIRPORT , BR)
Text: TAF SBIL 060300Z 0606/0618 20005KT 9999 FEW020 TN22/0607Z TX27/0617Z
Forecast period: 0600 to 1100 UTC 06 July 2020
Forecast type: FROM: standard forecast or significant change
Winds: from the SSW (200 degrees) at 6 MPH (5 knots; 2.6 m/s)
Visibility: 6 or more miles 10+ km)
Ceiling: at least 12,000 feet AGL
Clouds: few clouds at 2000 feet AGL
Weather: no significant weather forecast for this period
Text: BECMG 0611/0613 15005KT SCT025 FEW030TCU RMK PDY
Forecast period: 1100 to 1800 UTC 06 July 2020
Forecast type: BECOMING: Conditions expected to become as follows by 1300 UTC 06 July 2020
Winds: from the SSE (150 degrees) at 6 MPH (5 knots; 2.6 m/s)
Visibility: 6 or more miles 10+ km)
Ceiling: at least 12,000 feet AGL
Clouds: scattered clouds at 2500 feet AGL
few clouds at 3000 feet AGL
Weather: no significant weather forecast for this period